createdAt,value
2017-09-12T00:00:48.143Z,91.4
2017-09-12T00:01:49.628Z,91.5
2017-09-12T00:02:51.047Z,90.6
2017-09-12T00:03:52.504Z,91.5
2017-09-12T00:04:53.901Z,91.1
2017-09-12T00:05:55.384Z,91.3
2017-09-12T00:06:56.794Z,91.6
2017-09-12T00:07:58.192Z,91.0
2017-09-12T00:08:59.603Z,91.4
2017-09-12T00:10:01.001Z,91.2
2017-09-12T00:11:02.397Z,91.1
2017-09-12T00:12:03.835Z,90.1
2017-09-12T00:13:05.235Z,90.3
2017-09-12T00:14:06.702Z,90.4
2017-09-12T00:15:08.106Z,90.9
2017-09-12T00:16:09.582Z,91.7
2017-09-12T00:17:10.978Z,91.4
2017-09-12T00:18:12.464Z,90.4
2017-09-12T00:19:13.863Z,90.1
2017-09-12T00:20:15.344Z,91.8
2017-09-12T00:21:16.744Z,91.6
2017-09-12T00:22:18.234Z,90.8
2017-09-12T00:23:19.623Z,91.5
2017-09-12T00:24:21.106Z,91.4
2017-09-12T00:25:22.504Z,90.4
2017-09-12T00:26:23.992Z,91.8
2017-09-12T00:27:25.385Z,91.3
2017-09-12T00:28:26.786Z,91.4
2017-09-12T00:29:28.205Z,91.7
2017-09-12T00:30:29.603Z,91.6
2017-09-12T00:31:31.002Z,91.3
2017-09-12T00:32:32.417Z,91.6
2017-09-12T00:33:33.821Z,91.5
2017-09-12T00:34:35.220Z,91.4
2017-09-12T00:35:36.643Z,90.2
2017-09-12T00:36:38.059Z,91.5
2017-09-12T00:37:39.452Z,91.8
2017-09-12T00:38:40.977Z,91.5
2017-09-12T00:39:42.378Z,91.3
2017-09-12T00:40:43.844Z,91.6
2017-09-12T00:41:45.241Z,91.0
2017-09-12T00:42:46.641Z,90.0
2017-09-12T00:43:48.063Z,90.4
2017-09-12T00:44:49.457Z,90.8
2017-09-12T00:45:50.864Z,91.0
2017-09-12T00:46:52.283Z,91.5
2017-09-12T00:47:53.698Z,91.4
2017-09-12T00:48:55.103Z,91.0
2017-09-12T00:49:56.603Z,91.5
2017-09-12T00:50:58.000Z,92.3
2017-09-12T00:51:59.397Z,92.3
2017-09-12T00:53:00.820Z,91.7
2017-09-12T00:54:02.220Z,91.6
2017-09-12T00:55:03.701Z,91.9
2017-09-12T00:56:05.099Z,91.9
2017-09-12T00:57:06.583Z,92.2
2017-09-12T00:58:08.003Z,91.7
2017-09-12T00:59:09.408Z,91.1
2017-09-12T01:00:10.903Z,91.1
2017-09-12T01:01:12.313Z,91.3
2017-09-12T01:02:13.705Z,92.2
2017-09-12T01:03:15.137Z,91.6
2017-09-12T01:04:16.537Z,91.8
2017-09-12T01:05:18.014Z,92.5
2017-09-12T01:06:19.412Z,91.8
2017-09-12T01:07:20.889Z,91.7
2017-09-12T01:08:22.283Z,90.5
2017-09-12T01:09:23.686Z,91.5
2017-09-12T01:10:25.093Z,92.2
2017-09-12T01:11:26.504Z,91.5
2017-09-12T01:12:27.902Z,91.6
2017-09-12T01:13:29.321Z,91.3
2017-09-12T01:14:30.718Z,92.0
2017-09-12T01:15:32.120Z,91.5
2017-09-12T01:16:33.518Z,92.2
2017-09-12T01:17:34.927Z,91.8
2017-09-12T01:18:36.419Z,92.3
2017-09-12T01:19:37.815Z,91.4
2017-09-12T01:20:39.301Z,91.5
2017-09-12T01:21:40.698Z,91.2
2017-09-12T01:22:42.181Z,91.5
2017-09-12T01:23:43.583Z,91.5
2017-09-12T01:24:44.987Z,90.8
2017-09-12T01:25:46.403Z,91.4
2017-09-12T01:26:47.798Z,91.1
2017-09-12T01:27:49.194Z,91.5
2017-09-12T01:28:50.619Z,90.6
2017-09-12T01:29:52.018Z,91.2
2017-09-12T01:30:53.498Z,91.6
2017-09-12T01:31:54.896Z,91.8
2017-09-12T01:32:56.381Z,91.5
2017-09-12T01:33:57.781Z,91.9
2017-09-12T01:34:59.178Z,92.3
2017-09-12T01:36:00.597Z,91.8
2017-09-12T01:37:01.996Z,91.8
2017-09-12T01:38:03.395Z,91.6
2017-09-12T01:39:04.819Z,91.4
2017-09-12T01:40:06.218Z,91.4
2017-09-12T01:41:07.701Z,91.4
2017-09-12T01:42:09.099Z,91.7
2017-09-12T01:43:10.581Z,91.8
2017-09-12T01:44:11.981Z,91.4
2017-09-12T01:45:13.462Z,91.4
2017-09-12T01:46:14.870Z,91.5
2017-09-12T01:47:16.351Z,91.5
2017-09-12T01:48:17.750Z,92.0
2017-09-12T01:49:19.147Z,92.1
2017-09-12T01:50:20.559Z,91.5
2017-09-12T01:51:21.958Z,92.2
2017-09-12T01:52:23.357Z,92.5
2017-09-12T01:53:24.780Z,92.0
2017-09-12T01:54:26.177Z,91.4
2017-09-12T01:55:27.660Z,90.6
2017-09-12T01:56:29.057Z,90.8
2017-09-12T01:57:30.539Z,91.0
2017-09-12T01:58:31.936Z,91.5
2017-09-12T01:59:33.422Z,91.7
2017-09-12T02:00:34.816Z,91.8
2017-09-12T02:01:36.300Z,91.5
2017-09-12T02:02:37.704Z,91.9
2017-09-12T02:03:39.185Z,92.0
2017-09-12T02:04:40.580Z,92.5
2017-09-12T02:05:41.981Z,92.4
2017-09-12T02:06:43.400Z,92.7
2017-09-12T02:07:44.802Z,92.5
2017-09-12T02:08:46.196Z,92.0
2017-09-12T02:09:47.619Z,92.0
2017-09-12T02:10:49.018Z,92.9
2017-09-12T02:11:50.417Z,92.3
2017-09-12T02:12:51.837Z,92.1
2017-09-12T02:13:53.247Z,91.8
2017-09-12T02:14:54.649Z,92.9
2017-09-12T02:15:56.157Z,92.5
2017-09-12T02:16:57.557Z,92.5
2017-09-12T02:17:58.957Z,92.6
2017-09-12T02:19:00.377Z,92.4
2017-09-12T02:20:01.776Z,91.8
2017-09-12T02:21:03.256Z,92.3
2017-09-12T02:22:04.657Z,92.0
2017-09-12T02:23:06.139Z,92.5
2017-09-12T02:24:07.538Z,93.0
2017-09-12T02:25:09.021Z,92.0
2017-09-12T02:26:10.421Z,92.4
2017-09-12T02:27:11.902Z,92.3
2017-09-12T02:28:13.300Z,92.9
2017-09-12T02:29:14.778Z,93.3
2017-09-12T02:30:16.180Z,93.2
2017-09-12T02:31:17.659Z,93.3
2017-09-12T02:32:19.056Z,92.9
2017-09-12T02:33:20.541Z,92.6
2017-09-12T02:34:21.976Z,92.5
2017-09-12T02:35:23.422Z,92.3
2017-09-12T02:36:24.823Z,92.4
2017-09-12T02:37:26.301Z,92.1
2017-09-12T02:38:27.705Z,91.8
2017-09-12T02:39:29.184Z,92.4
2017-09-12T02:40:30.579Z,92.7
2017-09-12T02:41:31.978Z,93.4
2017-09-12T02:42:33.403Z,93.0
2017-09-12T02:43:34.800Z,92.7
2017-09-12T02:44:36.198Z,92.6
2017-09-12T02:45:37.622Z,92.7
2017-09-12T02:46:39.020Z,92.7
2017-09-12T02:47:40.502Z,93.0
2017-09-12T02:48:41.899Z,93.1
2017-09-12T02:49:43.302Z,93.6
2017-09-12T02:50:44.723Z,93.9
2017-09-12T02:51:46.119Z,93.0
2017-09-12T02:52:47.516Z,93.3
2017-09-12T02:53:48.941Z,93.1
2017-09-12T02:54:50.338Z,93.3
2017-09-12T02:55:51.735Z,93.2
2017-09-12T02:56:53.164Z,93.1
2017-09-12T02:57:54.565Z,93.8
2017-09-12T02:58:56.039Z,93.3
2017-09-12T02:59:57.435Z,93.8
2017-09-12T03:00:58.834Z,93.8
2017-09-12T03:02:00.258Z,93.0
2017-09-12T03:03:01.668Z,93.7
2017-09-12T03:04:03.068Z,93.8
2017-09-12T03:05:04.576Z,93.1
2017-09-12T03:06:05.977Z,93.5
2017-09-12T03:07:07.375Z,94.5
2017-09-12T03:08:09.016Z,94.1
2017-09-12T03:09:10.424Z,94.1
2017-09-12T03:10:11.826Z,94.6
2017-09-12T03:11:13.331Z,95.1
2017-09-12T03:12:14.735Z,95.4
2017-09-12T03:13:16.135Z,95.4
2017-09-12T03:14:17.644Z,95.6
2017-09-12T03:15:19.039Z,95.8
2017-09-12T03:16:20.448Z,95.9
2017-09-12T03:17:21.894Z,95.7
2017-09-12T03:18:23.301Z,95.6
2017-09-12T03:19:24.746Z,95.2
2017-09-12T03:20:26.166Z,95.4
2017-09-12T03:21:27.661Z,95.3
2017-09-12T03:22:29.054Z,95.2
2017-09-12T03:23:30.499Z,95.8
2017-09-12T03:24:31.902Z,95.8
2017-09-12T03:25:33.385Z,95.5
2017-09-12T03:26:34.788Z,95.6
2017-09-12T03:27:36.265Z,96.0
2017-09-12T03:28:37.661Z,96.2
2017-09-12T03:29:39.146Z,96.2
2017-09-12T03:30:40.549Z,95.2
2017-09-12T03:31:41.947Z,95.4
2017-09-12T03:32:43.366Z,95.6
2017-09-12T03:33:44.766Z,95.8
2017-09-12T03:34:46.167Z,95.5
2017-09-12T03:35:47.588Z,95.6
2017-09-12T03:36:48.984Z,95.6
2017-09-12T03:37:50.383Z,95.7
2017-09-12T03:38:51.810Z,95.6
2017-09-12T03:39:53.209Z,95.4
2017-09-12T03:40:54.612Z,95.6
2017-09-12T03:41:56.125Z,95.5
2017-09-12T03:42:57.524Z,95.9
2017-09-12T03:43:59.006Z,95.9
2017-09-12T03:45:00.413Z,95.9
2017-09-12T03:46:01.884Z,97.2
2017-09-12T03:47:03.285Z,97.3
2017-09-12T03:48:04.765Z,97.4
2017-09-12T03:49:06.165Z,97.3
2017-09-12T03:50:07.651Z,97.9
2017-09-12T03:51:09.054Z,97.9
2017-09-12T03:52:10.568Z,97.3
2017-09-12T03:53:11.968Z,97.9
2017-09-12T03:54:13.407Z,97.2
2017-09-12T03:55:14.804Z,97.9
2017-09-12T03:56:17.311Z,98.0
2017-09-12T03:57:18.719Z,98.8
2017-09-12T03:58:20.193Z,98.8
2017-09-12T03:59:21.589Z,98.0
2017-09-12T04:00:23.072Z,98.7
2017-09-12T04:01:24.478Z,98.4
2017-09-12T04:02:25.952Z,98.6
2017-09-12T04:03:27.357Z,98.3
2017-09-12T04:04:28.848Z,98.2
2017-09-12T04:05:30.245Z,100.0
2017-09-12T04:06:31.658Z,100.0
2017-09-12T04:07:34.073Z,100.0
2017-09-12T04:08:35.479Z,100.0
2017-09-12T04:09:36.884Z,100.0
2017-09-12T04:10:38.299Z,100.0
2017-09-12T04:11:39.697Z,100.0
2017-09-12T04:12:41.176Z,100.0
2017-09-12T04:13:42.611Z,100.0
2017-09-12T04:14:44.069Z,100.0
2017-09-12T04:15:45.469Z,100.0
2017-09-12T04:16:46.940Z,100.0
2017-09-12T04:17:48.361Z,100.0
2017-09-12T04:18:49.849Z,100.0
2017-09-12T04:19:51.246Z,100.0
2017-09-12T04:20:52.670Z,100.0
2017-09-12T04:21:54.140Z,100.0
2017-09-12T04:22:55.908Z,100.0
2017-09-12T04:23:58.213Z,100.0
2017-09-12T04:24:59.623Z,100.0
2017-09-12T04:26:01.103Z,100.0
2017-09-12T04:27:02.499Z,100.0
2017-09-12T04:28:03.940Z,100.0
2017-09-12T04:29:05.346Z,100.0
2017-09-12T04:30:06.750Z,100.0
2017-09-12T04:31:08.143Z,100.0
2017-09-12T04:32:09.543Z,100.0
2017-09-12T04:33:10.947Z,100.0
2017-09-12T04:34:12.352Z,100.0
2017-09-12T04:35:13.763Z,100.0
2017-09-12T04:36:15.170Z,100.0
2017-09-12T04:37:16.572Z,100.0
2017-09-12T04:38:17.973Z,100.0
2017-09-12T04:39:19.388Z,100.0
2017-09-12T04:40:20.785Z,100.0
2017-09-12T04:41:22.566Z,100.0
2017-09-12T04:42:23.973Z,100.0
2017-09-12T04:43:25.376Z,100.0
2017-09-12T04:44:26.785Z,100.0
2017-09-12T04:45:28.180Z,100.0
2017-09-12T04:46:29.584Z,100.0
2017-09-12T04:47:30.984Z,100.0
2017-09-12T04:48:32.394Z,100.0
2017-09-12T04:49:33.791Z,100.0
2017-09-12T04:50:35.195Z,100.0
2017-09-12T04:51:36.596Z,100.0
2017-09-12T04:52:38.272Z,100.0
2017-09-12T04:53:39.673Z,100.0
2017-09-12T04:54:41.076Z,100.0
2017-09-12T04:55:42.482Z,100.0
2017-09-12T04:56:43.877Z,100.0
2017-09-12T04:57:45.277Z,100.0
2017-09-12T04:58:46.684Z,100.0
2017-09-12T04:59:48.085Z,100.0
2017-09-12T05:00:49.495Z,100.0
2017-09-12T05:01:50.896Z,100.0
2017-09-12T05:02:52.303Z,100.0
2017-09-12T05:03:53.703Z,100.0
2017-09-12T05:04:55.109Z,100.0
2017-09-12T05:05:56.509Z,100.0
2017-09-12T05:06:57.920Z,100.0
2017-09-12T05:07:59.318Z,100.0
2017-09-12T05:09:00.716Z,100.0
2017-09-12T05:10:02.118Z,100.0
2017-09-12T05:11:03.528Z,100.0
2017-09-12T05:12:04.924Z,100.0
2017-09-12T05:13:06.332Z,100.0
2017-09-12T05:14:07.733Z,100.0
2017-09-12T05:15:09.139Z,100.0
2017-09-12T05:16:10.538Z,100.0
2017-09-12T05:17:11.938Z,100.0
2017-09-12T05:18:13.349Z,100.0
2017-09-12T05:19:14.748Z,100.0
2017-09-12T05:20:16.153Z,100.0
2017-09-12T05:21:17.560Z,100.0
2017-09-12T05:22:18.961Z,100.0
2017-09-12T05:23:20.366Z,100.0
2017-09-12T05:24:21.768Z,100.0
2017-09-12T05:25:23.172Z,100.0
2017-09-12T05:26:24.578Z,100.0
2017-09-12T05:27:25.977Z,100.0
2017-09-12T05:28:27.560Z,100.0
2017-09-12T05:29:28.958Z,100.0
2017-09-12T05:30:30.354Z,100.0
2017-09-12T05:31:31.882Z,100.0
2017-09-12T05:32:33.285Z,100.0
2017-09-12T05:33:34.685Z,100.0
2017-09-12T05:34:36.205Z,100.0
2017-09-12T05:35:37.611Z,100.0
2017-09-12T05:36:39.030Z,100.0
2017-09-12T05:37:40.540Z,100.0
2017-09-12T05:38:41.952Z,100.0
2017-09-12T05:39:43.410Z,100.0
2017-09-12T05:40:44.812Z,100.0
2017-09-12T05:41:46.218Z,100.0
2017-09-12T05:42:47.732Z,100.0
2017-09-12T05:43:49.133Z,100.0
2017-09-12T05:44:50.536Z,100.0
2017-09-12T05:45:52.052Z,100.0
2017-09-12T05:46:53.456Z,100.0
2017-09-12T05:47:54.862Z,100.0
2017-09-12T05:48:56.273Z,100.0
2017-09-12T05:49:57.754Z,100.0
2017-09-12T05:50:59.309Z,100.0
2017-09-12T05:52:00.908Z,100.0
2017-09-12T05:53:02.320Z,100.0
2017-09-12T05:54:03.787Z,100.0
2017-09-12T05:55:05.192Z,100.0
2017-09-12T05:56:06.660Z,100.0
2017-09-12T05:57:08.061Z,100.0
2017-09-12T05:58:09.466Z,100.0
2017-09-12T05:59:10.977Z,100.0
2017-09-12T06:00:12.386Z,100.0
2017-09-12T06:01:13.789Z,100.0
2017-09-12T06:02:15.301Z,100.0
2017-09-12T06:03:16.704Z,100.0
2017-09-12T06:04:18.109Z,100.0
2017-09-12T06:05:19.625Z,100.0
2017-09-12T06:06:21.021Z,100.0
2017-09-12T06:07:22.422Z,100.0
2017-09-12T06:08:23.954Z,100.0
2017-09-12T06:09:25.362Z,100.0
2017-09-12T06:10:26.772Z,100.0
2017-09-12T06:11:28.172Z,100.0
2017-09-12T06:12:30.147Z,100.0
2017-09-12T06:13:31.548Z,100.0
2017-09-12T06:14:32.955Z,100.0
2017-09-12T06:15:34.358Z,100.0
2017-09-12T06:16:35.760Z,100.0
2017-09-12T06:17:37.168Z,100.0
2017-09-12T06:18:38.584Z,100.0
2017-09-12T06:19:39.991Z,100.0
2017-09-12T06:20:41.416Z,100.0
2017-09-12T06:21:42.877Z,100.0
2017-09-12T06:22:44.282Z,100.0
2017-09-12T06:23:45.687Z,100.0
2017-09-12T06:24:47.097Z,100.0
2017-09-12T06:25:48.501Z,100.0
2017-09-12T06:26:49.905Z,100.0
2017-09-12T06:27:51.422Z,100.0
2017-09-12T06:28:52.824Z,100.0
2017-09-12T06:29:54.299Z,100.0
2017-09-12T06:30:55.702Z,100.0
2017-09-12T06:31:57.177Z,100.0
2017-09-12T06:32:58.579Z,100.0
2017-09-12T06:33:59.989Z,100.0
2017-09-12T06:35:01.393Z,100.0
2017-09-12T06:36:02.803Z,100.0
2017-09-12T06:37:04.216Z,100.0
2017-09-12T06:38:05.615Z,100.0
2017-09-12T06:39:07.053Z,100.0
2017-09-12T06:40:08.457Z,100.0
2017-09-12T06:41:09.862Z,100.0
2017-09-12T06:42:11.377Z,100.0
2017-09-12T06:43:12.777Z,100.0
2017-09-12T06:44:14.175Z,100.0
2017-09-12T06:45:15.691Z,100.0
2017-09-12T06:46:17.098Z,100.0
2017-09-12T06:47:18.502Z,100.0
2017-09-12T06:48:20.016Z,100.0
2017-09-12T06:49:21.418Z,100.0
2017-09-12T06:50:22.899Z,100.0
2017-09-12T06:51:24.299Z,100.0
2017-09-12T06:52:25.706Z,100.0
2017-09-12T06:53:27.232Z,100.0
2017-09-12T06:54:28.637Z,100.0
2017-09-12T06:55:30.043Z,100.0
2017-09-12T06:56:31.535Z,100.0
2017-09-12T06:57:32.942Z,100.0
2017-09-12T06:58:34.343Z,100.0
2017-09-12T06:59:35.859Z,100.0
2017-09-12T07:00:37.263Z,100.0
2017-09-12T07:01:38.667Z,100.0
2017-09-12T07:02:40.178Z,100.0
2017-09-12T07:03:41.585Z,100.0
2017-09-12T07:04:43.086Z,100.0
2017-09-12T07:05:44.850Z,100.0
2017-09-12T07:06:46.350Z,100.0
2017-09-12T07:07:47.790Z,100.0
2017-09-12T07:08:49.232Z,100.0
2017-09-12T07:09:50.633Z,100.0
2017-09-12T07:10:52.110Z,100.0
2017-09-12T07:11:53.515Z,100.0
2017-09-12T07:12:54.992Z,100.0
2017-09-12T07:13:56.396Z,100.0
2017-09-12T07:14:57.872Z,100.0
2017-09-12T07:15:59.274Z,100.0
2017-09-12T07:17:00.753Z,100.0
2017-09-12T07:18:02.157Z,100.0
2017-09-12T07:19:03.635Z,100.0
2017-09-12T07:20:05.039Z,100.0
2017-09-12T07:21:06.514Z,100.0
2017-09-12T07:22:07.914Z,100.0
2017-09-12T07:23:09.316Z,100.0
2017-09-12T07:24:10.837Z,100.0
2017-09-12T07:25:12.237Z,100.0
2017-09-12T07:26:13.636Z,100.0
2017-09-12T07:27:15.055Z,100.0
2017-09-12T07:28:16.455Z,100.0
2017-09-12T07:29:17.858Z,100.0
2017-09-12T07:30:19.279Z,100.0
2017-09-12T07:31:20.689Z,100.0
2017-09-12T07:32:22.090Z,100.0
2017-09-12T07:33:23.600Z,100.0
2017-09-12T07:34:25.003Z,100.0
2017-09-12T07:35:26.405Z,100.0
2017-09-12T07:36:27.918Z,100.0
2017-09-12T07:37:29.320Z,100.0
2017-09-12T07:38:30.744Z,100.0
2017-09-12T07:39:32.235Z,100.0
2017-09-12T07:40:33.638Z,100.0
2017-09-12T07:41:35.117Z,100.0
2017-09-12T07:42:36.520Z,100.0
2017-09-12T07:43:37.921Z,100.0
2017-09-12T07:44:39.440Z,100.0
2017-09-12T07:45:40.849Z,100.0
2017-09-12T07:46:42.251Z,100.0
2017-09-12T07:47:43.763Z,100.0
2017-09-12T07:48:45.170Z,100.0
2017-09-12T07:49:46.577Z,100.0
2017-09-12T07:50:48.083Z,100.0
2017-09-12T07:51:49.494Z,100.0
2017-09-12T07:52:50.901Z,100.0
2017-09-12T07:53:52.404Z,100.0
2017-09-12T07:54:53.809Z,100.0
2017-09-12T07:55:55.213Z,100.0
2017-09-12T07:56:56.724Z,100.0
2017-09-12T07:57:58.134Z,100.0
2017-09-12T07:58:59.537Z,100.0
2017-09-12T08:00:01.052Z,100.0
2017-09-12T08:01:02.455Z,100.0
2017-09-12T08:02:03.931Z,100.0
2017-09-12T08:03:05.336Z,100.0
2017-09-12T08:04:06.816Z,100.0
2017-09-12T08:05:08.214Z,100.0
2017-09-12T08:06:09.692Z,100.0
2017-09-12T08:07:11.098Z,100.0
2017-09-12T08:08:12.956Z,100.0
2017-09-12T08:09:14.363Z,100.0
2017-09-12T08:10:15.860Z,100.0
2017-09-12T08:11:17.273Z,100.0
2017-09-12T08:12:18.742Z,100.0
2017-09-12T08:13:20.157Z,100.0
2017-09-12T08:14:21.622Z,100.0
2017-09-12T08:15:23.025Z,99.8
2017-09-12T08:16:24.502Z,100.0
2017-09-12T08:17:25.912Z,100.0
2017-09-12T08:18:27.453Z,100.0
2017-09-12T08:19:28.858Z,99.2
2017-09-12T08:20:30.279Z,100.0
2017-09-12T08:21:31.683Z,100.0
2017-09-12T08:22:33.098Z,100.0
2017-09-12T08:23:34.502Z,100.0
2017-09-12T08:24:35.912Z,99.8
2017-09-12T08:25:37.315Z,97.6
2017-09-12T08:26:38.736Z,96.7
2017-09-12T08:27:40.139Z,97.3
2017-09-12T08:28:41.545Z,98.8
2017-09-12T08:29:42.956Z,98.6
2017-09-12T08:30:44.359Z,97.9
2017-09-12T08:31:45.765Z,96.5
2017-09-12T08:32:47.192Z,97.5
2017-09-12T08:33:48.613Z,97.6
2017-09-12T08:34:50.006Z,97.6
2017-09-12T08:35:51.415Z,96.6
2017-09-12T08:36:52.819Z,95.6
2017-09-12T08:37:54.243Z,95.8
2017-09-12T08:38:55.653Z,94.0
2017-09-12T08:39:57.064Z,95.6
2017-09-12T08:40:58.469Z,95.9
2017-09-12T08:41:59.878Z,96.5
2017-09-12T08:43:01.284Z,96.2
2017-09-12T08:44:02.683Z,95.5
2017-09-12T08:45:04.121Z,95.5
2017-09-12T08:46:05.500Z,95.4
2017-09-12T08:47:06.904Z,95.6
2017-09-12T08:48:08.314Z,95.9
2017-09-12T08:49:09.720Z,96.0
2017-09-12T08:50:11.127Z,95.9
2017-09-12T08:51:12.558Z,94.6
2017-09-12T08:52:13.980Z,95.2
2017-09-12T08:53:15.431Z,95.3
2017-09-12T08:54:16.834Z,94.5
2017-09-12T08:55:18.252Z,93.8
2017-09-12T08:56:19.747Z,94.3
2017-09-12T08:57:21.165Z,94.9
2017-09-12T08:58:22.569Z,94.5
2017-09-12T08:59:24.072Z,93.8
2017-09-12T09:00:25.474Z,94.0
2017-09-12T09:01:26.954Z,94.1
2017-09-12T09:02:28.368Z,93.4
2017-09-12T09:03:29.834Z,92.8
2017-09-12T09:04:31.247Z,91.0
2017-09-12T09:05:32.656Z,90.9
2017-09-12T09:06:34.155Z,91.5
2017-09-12T09:07:35.560Z,92.0
2017-09-12T09:08:36.964Z,91.5
2017-09-12T09:09:38.478Z,90.1
2017-09-12T09:10:39.899Z,90.2
2017-09-12T09:11:41.382Z,89.3
2017-09-12T09:12:42.783Z,88.6
2017-09-12T09:13:44.233Z,88.4
2017-09-12T09:14:45.645Z,89.7
2017-09-12T09:15:47.118Z,89.8
2017-09-12T09:16:48.521Z,91.5
2017-09-12T09:17:50.013Z,91.8
2017-09-12T09:18:51.418Z,91.3
2017-09-12T09:19:52.880Z,91.1
2017-09-12T09:20:54.276Z,90.0
2017-09-12T09:21:55.694Z,89.8
2017-09-12T09:22:57.207Z,89.5
2017-09-12T09:23:58.612Z,88.2
2017-09-12T09:25:00.039Z,88.7
2017-09-12T09:26:01.527Z,90.5
2017-09-12T09:27:02.933Z,89.1
2017-09-12T09:28:04.404Z,87.7
2017-09-12T09:29:05.808Z,85.7
2017-09-12T09:30:07.289Z,86.7
2017-09-12T09:31:08.695Z,86.5
2017-09-12T09:32:10.164Z,85.7
2017-09-12T09:33:11.573Z,85.9
2017-09-12T09:34:13.046Z,84.6
2017-09-12T09:35:14.448Z,83.8
2017-09-12T09:36:15.856Z,84.1
2017-09-12T09:37:17.364Z,83.1
2017-09-12T09:38:18.801Z,81.3
2017-09-12T09:39:20.205Z,80.8
2017-09-12T09:40:21.716Z,80.5
2017-09-12T09:41:23.094Z,82.5
2017-09-12T09:42:24.574Z,83.7
2017-09-12T09:43:25.982Z,82.8
2017-09-12T09:44:27.473Z,82.0
2017-09-12T09:45:28.900Z,80.8
2017-09-12T09:46:30.328Z,80.2
2017-09-12T09:47:31.745Z,80.1
2017-09-12T09:48:33.212Z,80.7
2017-09-12T09:49:34.613Z,80.1
2017-09-12T09:50:36.020Z,80.3
2017-09-12T09:51:37.531Z,81.4
2017-09-12T09:52:39.351Z,80.5
2017-09-12T09:53:40.797Z,80.8
2017-09-12T09:54:42.264Z,80.4
2017-09-12T09:55:43.676Z,81.1
2017-09-12T09:56:45.091Z,80.3
2017-09-12T09:57:46.606Z,80.0
2017-09-12T09:58:48.012Z,80.9
2017-09-12T09:59:49.813Z,80.2
2017-09-12T10:00:51.317Z,80.2
2017-09-12T10:01:52.721Z,79.9
2017-09-12T10:02:54.198Z,79.3
2017-09-12T10:03:55.601Z,78.1
2017-09-12T10:04:57.072Z,78.2
2017-09-12T10:05:58.478Z,77.3
2017-09-12T10:06:59.953Z,74.4
2017-09-12T10:08:01.360Z,73.7
2017-09-12T10:09:02.840Z,73.9
2017-09-12T10:10:04.241Z,72.4
2017-09-12T10:11:05.717Z,73.5
2017-09-12T10:12:07.120Z,75.2
2017-09-12T10:13:08.673Z,75.1
2017-09-12T10:14:10.086Z,74.5
2017-09-12T10:15:11.493Z,75.7
2017-09-12T10:16:12.920Z,75.7
2017-09-12T10:17:14.324Z,76.2
2017-09-12T10:18:15.725Z,76.9
2017-09-12T10:19:17.254Z,74.7
2017-09-12T10:20:18.663Z,73.7
2017-09-12T10:21:20.070Z,72.5
2017-09-12T10:22:21.562Z,72.1
2017-09-12T10:23:22.971Z,72.1
2017-09-12T10:24:24.442Z,70.9
2017-09-12T10:25:25.855Z,72.5
2017-09-12T10:26:27.320Z,72.2
2017-09-12T10:27:28.734Z,72.5
2017-09-12T10:28:30.622Z,71.8
2017-09-12T10:29:32.033Z,72.2
2017-09-12T10:30:33.555Z,72.6
2017-09-12T10:31:34.959Z,72.5
2017-09-12T10:32:36.430Z,70.3
2017-09-12T10:33:37.835Z,72.2
2017-09-12T10:34:39.338Z,71.6
2017-09-12T10:35:40.742Z,73.3
2017-09-12T10:36:42.149Z,74.4
2017-09-12T10:37:43.651Z,73.8
2017-09-12T10:38:45.053Z,75.1
2017-09-12T10:39:46.459Z,75.4
2017-09-12T10:40:47.955Z,76.8
2017-09-12T10:41:49.360Z,77.1
2017-09-12T10:42:50.765Z,75.4
2017-09-12T10:43:52.278Z,75.9
2017-09-12T10:44:53.683Z,73.3
2017-09-12T10:45:55.093Z,76.1
2017-09-12T10:46:56.602Z,76.0
2017-09-12T10:47:58.008Z,76.4
2017-09-12T10:48:59.413Z,75.5
2017-09-12T10:50:00.934Z,73.7
2017-09-12T10:51:02.340Z,74.0
2017-09-12T10:52:03.748Z,72.2
2017-09-12T10:53:05.241Z,72.0
2017-09-12T10:54:06.649Z,73.3
2017-09-12T10:55:08.129Z,73.0
2017-09-12T10:56:09.529Z,71.6
2017-09-12T10:57:11.005Z,71.0
2017-09-12T10:58:12.412Z,71.0
2017-09-12T10:59:13.886Z,71.9
2017-09-12T11:00:15.290Z,71.0
2017-09-12T11:01:16.700Z,71.1
2017-09-12T11:02:18.207Z,70.2
2017-09-12T11:03:19.611Z,71.7
2017-09-12T11:04:21.020Z,69.8
2017-09-12T11:05:22.546Z,70.7
2017-09-12T11:06:23.957Z,68.3
2017-09-12T11:07:25.411Z,65.6
2017-09-12T11:08:26.821Z,67.0
2017-09-12T11:09:28.290Z,68.2
2017-09-12T11:10:29.700Z,70.3
2017-09-12T11:11:31.117Z,72.4
2017-09-12T11:12:32.614Z,73.4
2017-09-12T11:13:34.021Z,71.5
2017-09-12T11:14:35.435Z,71.6
2017-09-12T11:15:36.935Z,71.5
2017-09-12T11:16:38.338Z,73.9
2017-09-12T11:17:39.814Z,73.5
2017-09-12T11:18:41.222Z,74.1
2017-09-12T11:19:42.696Z,74.0
2017-09-12T11:20:44.101Z,73.1
2017-09-12T11:21:45.577Z,73.4
2017-09-12T11:22:46.982Z,75.0
2017-09-12T11:23:48.459Z,70.7
2017-09-12T11:24:49.873Z,72.1
2017-09-12T11:25:51.354Z,73.0
2017-09-12T11:26:52.769Z,71.7
2017-09-12T11:27:54.181Z,71.8
2017-09-12T11:28:56.685Z,72.4
2017-09-12T11:29:58.091Z,72.0
2017-09-12T11:30:59.498Z,72.3
2017-09-12T11:32:01.008Z,72.8
2017-09-12T11:33:02.411Z,73.5
2017-09-12T11:34:03.887Z,79.4
2017-09-12T11:35:05.292Z,83.9
2017-09-12T11:36:06.700Z,87.3
2017-09-12T11:37:08.211Z,91.4
2017-09-12T11:38:09.616Z,94.4
2017-09-12T11:39:11.025Z,92.0
2017-09-12T11:40:12.534Z,93.4
2017-09-12T11:41:13.936Z,93.8
2017-09-12T11:42:15.342Z,91.9
2017-09-12T11:43:16.852Z,90.8
2017-09-12T11:44:18.271Z,90.6
2017-09-12T11:45:19.738Z,89.8
2017-09-12T11:46:21.137Z,91.0
2017-09-12T11:47:22.620Z,91.7
2017-09-12T11:48:24.023Z,91.3
2017-09-12T11:49:25.499Z,91.1
2017-09-12T11:50:26.900Z,91.1
2017-09-12T11:51:28.301Z,91.8
2017-09-12T11:52:29.831Z,90.7
2017-09-12T11:53:31.233Z,89.0
2017-09-12T11:54:32.642Z,87.5
2017-09-12T11:55:34.142Z,87.7
2017-09-12T11:56:35.546Z,87.3
2017-09-12T11:57:36.967Z,87.1
2017-09-12T11:58:39.101Z,87.4
2017-09-12T11:59:40.510Z,88.2
2017-09-12T12:00:41.922Z,87.4
2017-09-12T12:01:43.423Z,88.2
2017-09-12T12:02:44.826Z,86.5
2017-09-12T12:03:46.303Z,87.2
2017-09-12T12:04:47.729Z,87.6
2017-09-12T12:05:49.185Z,88.1
2017-09-12T12:06:50.591Z,88.6
2017-09-12T12:07:51.992Z,90.2
2017-09-12T12:08:53.506Z,91.6
2017-09-12T12:09:54.917Z,90.8
2017-09-12T12:10:56.319Z,90.7
2017-09-12T12:11:57.828Z,88.2
2017-09-12T12:12:59.241Z,88.5
2017-09-12T12:14:00.710Z,88.7
2017-09-12T12:15:02.120Z,88.2
2017-09-12T12:16:03.587Z,88.2
2017-09-12T12:17:04.995Z,88.2
2017-09-12T12:18:06.405Z,87.7
2017-09-12T12:19:07.909Z,87.7
2017-09-12T12:20:09.311Z,85.7
2017-09-12T12:21:10.725Z,85.2
2017-09-12T12:22:12.230Z,84.4
2017-09-12T12:23:13.632Z,84.3
2017-09-12T12:24:15.069Z,82.8
2017-09-12T12:25:16.553Z,83.3
2017-09-12T12:26:17.952Z,84.1
2017-09-12T12:27:19.355Z,86.3
2017-09-12T12:28:20.868Z,86.7
2017-09-12T12:29:22.273Z,85.6
2017-09-12T12:30:23.754Z,87.3
2017-09-12T12:31:25.170Z,86.4
2017-09-12T12:32:26.633Z,85.7
2017-09-12T12:33:28.038Z,87.1
2017-09-12T12:34:29.514Z,86.7
2017-09-12T12:35:30.918Z,86.0
2017-09-12T12:36:32.394Z,86.4
2017-09-12T12:37:33.798Z,86.5
2017-09-12T12:38:35.203Z,84.5
2017-09-12T12:39:36.721Z,85.8
2017-09-12T12:40:38.127Z,87.1
2017-09-12T12:41:39.526Z,85.6
2017-09-12T12:42:41.037Z,83.9
2017-09-12T12:43:42.438Z,84.7
2017-09-12T12:44:43.932Z,85.9
2017-09-12T12:45:45.339Z,84.1
2017-09-12T12:46:46.799Z,86.0
2017-09-12T12:47:48.207Z,87.2
2017-09-12T12:48:49.605Z,86.9
2017-09-12T12:49:51.117Z,84.7
2017-09-12T12:50:52.523Z,83.7
2017-09-12T12:51:53.923Z,84.7
2017-09-12T12:52:55.437Z,85.2
2017-09-12T12:53:56.850Z,85.2
2017-09-12T12:54:58.252Z,86.5
2017-09-12T12:55:59.762Z,87.1
2017-09-12T12:57:01.163Z,88.5
2017-09-12T12:58:02.563Z,90.8
2017-09-12T12:59:04.085Z,91.6
2017-09-12T13:00:05.484Z,91.8
2017-09-12T13:01:06.889Z,91.6
2017-09-12T13:02:08.393Z,90.9
2017-09-12T13:03:09.805Z,91.8
2017-09-12T13:04:11.282Z,89.2
2017-09-12T13:05:12.685Z,89.8
2017-09-12T13:06:14.162Z,90.5
2017-09-12T13:07:15.562Z,91.9
2017-09-12T13:08:16.964Z,91.8
2017-09-12T13:09:18.393Z,91.3
2017-09-12T13:10:19.845Z,92.0
2017-09-12T13:11:21.249Z,90.5
2017-09-12T13:12:22.707Z,91.5
2017-09-12T13:13:24.110Z,89.7
2017-09-12T13:14:25.513Z,89.7
2017-09-12T13:15:26.930Z,88.4
2017-09-12T13:16:28.332Z,89.8
2017-09-12T13:17:29.733Z,91.2
2017-09-12T13:18:31.240Z,90.6
2017-09-12T13:19:32.647Z,90.0
2017-09-12T13:20:34.053Z,88.6
2017-09-12T13:21:35.454Z,89.5
2017-09-12T13:22:36.863Z,89.9
2017-09-12T13:23:38.262Z,90.5
2017-09-12T13:24:39.712Z,91.1
2017-09-12T13:25:41.111Z,89.4
2017-09-12T13:26:42.552Z,89.6
2017-09-12T13:27:43.953Z,90.9
2017-09-12T13:28:45.356Z,89.6
2017-09-12T13:29:46.874Z,90.1